Time;durP1;ratioP1;P1;durP2;ratioP2;P2;SDS_P1;SDS_P2;PMS_P1;PMS_P2;Temp;Humidity;BMP_temperature;BMP_pressure;BME280_temperature;BME280_humidity;BME280_pressure;Samples;Min_cycle;Max_cycle;Signal;HPM_P1;HPM_P2
2022/07/13 00:02:24;;;;;;;6.25;3.55;;;20.50;99.90;;;;;;5056217;28;20115;-77
2022/07/13 00:04:50;;;;;;;6.47;3.55;;;20.50;99.90;;;;;;5073441;28;20036;-77
2022/07/13 00:07:16;;;;;;;6.78;4.22;;;20.60;99.90;;;;;;5073768;28;20040;-77
2022/07/13 00:09:41;;;;;;;8.52;3.92;;;20.50;99.90;;;;;;5055908;28;20473;-78
2022/07/13 00:12:07;;;;;;;4.60;3.22;;;20.50;99.90;;;;;;5073276;28;20016;-78
2022/07/13 00:14:33;;;;;;;7.88;4.93;;;20.60;99.90;;;;;;5073768;28;20027;-77
2022/07/13 00:16:59;;;;;;;7.20;4.43;;;20.50;99.90;;;;;;5073954;28;20024;-77
2022/07/13 00:19:24;;;;;;;6.78;3.85;;;20.40;99.90;;;;;;5073698;28;20103;-77
2022/07/13 00:21:50;;;;;;;8.02;3.53;;;20.40;99.90;;;;;;5073706;28;20020;-77
2022/07/13 00:24:15;;;;;;;6.13;4.25;;;20.50;99.90;;;;;;5055714;28;20029;-77
2022/07/13 00:26:41;;;;;;;6.55;3.97;;;20.40;99.90;;;;;;5073696;28;20032;-77
2022/07/13 00:29:06;;;;;;;9.32;4.95;;;20.40;99.90;;;;;;5073817;28;20025;-77
2022/07/13 00:31:32;;;;;;;7.60;4.70;;;20.40;99.90;;;;;;5055668;28;20073;-77
2022/07/13 00:33:57;;;;;;;8.32;4.75;;;20.40;99.90;;;;;;5074064;28;20024;-78
2022/07/13 00:36:23;;;;;;;7.85;5.18;;;20.40;99.90;;;;;;5073959;28;20017;-78
2022/07/13 00:38:48;;;;;;;8.43;5.07;;;20.40;99.90;;;;;;5056558;28;20400;-78
2022/07/13 00:41:14;;;;;;;7.88;4.80;;;20.40;99.90;;;;;;5057881;28;20457;-78
2022/07/13 00:43:40;;;;;;;10.25;5.35;;;20.40;99.90;;;;;;5075745;28;20419;-78
2022/07/13 00:46:05;;;;;;;7.65;4.55;;;20.40;99.90;;;;;;5076302;28;20495;-78
2022/07/13 00:48:32;;;;;;;11.55;4.85;;;20.40;99.90;;;;;;5058262;28;20028;-78
2022/07/13 00:50:59;;;;;;;10.55;4.93;;;20.40;99.90;;;;;;5057845;28;20032;-78
2022/07/13 00:53:25;;;;;;;8.30;5.10;;;20.50;99.90;;;;;;5057569;28;20027;-78
2022/07/13 00:55:51;;;;;;;9.38;5.18;;;21.70;99.90;;;;;;5057870;28;20020;-79
2022/07/13 00:58:17;;;;;;;8.13;5.00;;;20.40;99.90;;;;;;5056938;28;20040;-78
2022/07/13 01:00:42;;;;;;;13.68;5.05;;;20.40;99.90;;;;;;5074646;28;20088;-78
2022/07/13 01:03:08;;;;;;;9.00;5.10;;;20.40;99.90;;;;;;5056499;28;20063;-78
2022/07/13 01:05:34;;;;;;;10.40;4.70;;;20.30;99.90;;;;;;5058149;28;20041;-78
2022/07/13 01:08:03;;;;;;;8.00;4.20;;;20.40;99.90;;;;;;5060840;28;20078;-78
2022/07/13 01:10:28;;;;;;;7.38;4.15;;;20.30;99.90;;;;;;5087103;28;20433;-78
2022/07/13 01:12:54;;;;;;;8.10;5.05;;;20.30;99.90;;;;;;5085206;28;20032;-79
2022/07/13 01:15:21;;;;;;;7.32;5.03;;;20.30;99.90;;;;;;5056722;28;20074;-78
2022/07/13 01:17:47;;;;;;;7.25;4.18;;;20.30;99.90;;;;;;5087574;28;20032;-80
2022/07/13 01:20:14;;;;;;;6.25;4.22;;;20.20;99.90;;;;;;5090818;28;20099;-80
2022/07/13 01:22:46;;;;;;;7.57;4.38;;;20.70;99.90;;;;;;5088877;28;20047;-79
2022/07/13 01:25:14;;;;;;;9.13;5.10;;;20.20;99.90;;;;;;5092560;28;20032;-79
2022/07/13 01:27:42;;;;;;;7.75;4.85;;;21.10;99.90;;;;;;5095843;28;20000;-79
2022/07/13 01:30:08;;;;;;;8.32;5.18;;;20.30;99.90;;;;;;5076811;28;20024;-80
2022/07/13 01:32:50;;;;;;;11.98;5.72;;;20.30;99.90;;;;;;5076081;28;20056;-79
2022/07/13 01:35:16;;;;;;;11.10;5.65;;;20.40;99.90;;;;;;5067084;28;20436;-78
2022/07/13 01:37:43;;;;;;;9.77;4.95;;;20.30;99.90;;;;;;5066673;28;20495;-79
2022/07/13 01:40:10;;;;;;;11.52;4.95;;;20.30;99.90;;;;;;5070635;28;20021;-79
2022/07/13 01:42:49;;;;;;;10.70;6.13;;;20.30;99.90;;;;;;5088841;28;20025;-79
2022/07/13 01:45:17;;;;;;;10.38;6.07;;;20.30;99.90;;;;;;5087685;28;20030;-78
2022/07/13 01:47:46;;;;;;;11.83;6.27;;;20.40;99.90;;;;;;5071923;28;20048;-78
2022/07/13 01:50:14;;;;;;;9.88;5.13;;;20.40;99.90;;;;;;5088694;28;20029;-78
2022/07/13 01:52:40;;;;;;;12.48;5.88;;;20.40;99.90;;;;;;5089134;28;20030;-78
2022/07/13 01:55:08;;;;;;;10.57;6.38;;;20.30;99.90;;;;;;5089064;28;20020;-78
2022/07/13 01:57:35;;;;;;;10.67;5.03;;;20.40;99.90;;;;;;5071154;28;20021;-78
2022/07/13 02:00:10;;;;;;;10.15;5.50;;;20.40;99.90;;;;;;5089044;28;20397;-78
2022/07/13 02:02:36;;;;;;;9.30;5.60;;;20.40;99.90;;;;;;5093559;28;20367;-79
2022/07/13 02:05:02;;;;;;;9.63;5.80;;;20.40;99.90;;;;;;5077110;28;20070;-80
2022/07/13 02:07:28;;;;;;;13.43;5.97;;;20.40;99.90;;;;;;5076659;28;20161;-79
2022/07/13 02:09:53;;;;;;;9.57;5.63;;;20.50;99.90;;;;;;5076044;28;20012;-80
2022/07/13 02:12:19;;;;;;;10.15;5.55;;;20.40;99.90;;;;;;5093620;28;20025;-80
2022/07/13 02:14:46;;;;;;;11.32;5.78;;;20.50;99.90;;;;;;5094775;28;20020;-80
2022/07/13 02:17:12;;;;;;;12.30;6.57;;;20.50;99.90;;;;;;5073933;28;20020;-78
2022/07/13 02:19:38;;;;;;;12.15;6.03;;;20.40;99.90;;;;;;5060175;28;20063;-78
2022/07/13 02:22:03;;;;;;;11.23;6.20;;;20.50;99.90;;;;;;5077307;28;20437;-78
2022/07/13 02:24:30;;;;;;;9.77;5.63;;;20.50;99.90;;;;;;5077748;28;20016;-78
2022/07/13 02:26:55;;;;;;;12.30;6.43;;;20.50;99.90;;;;;;5077437;28;20017;-78
2022/07/13 02:29:21;;;;;;;10.02;6.20;;;19.40;99.90;;;;;;5076881;28;20490;-78
2022/07/13 02:31:46;;;;;;;12.10;6.25;;;20.50;99.90;;;;;;5077140;28;20028;-78
2022/07/13 02:34:12;;;;;;;10.70;6.25;;;20.40;99.90;;;;;;5058829;28;20507;-79
2022/07/13 02:36:37;;;;;;;10.70;5.75;;;20.40;99.90;;;;;;5076606;28;20016;-78
2022/07/13 02:39:03;;;;;;;10.38;6.18;;;20.50;99.90;;;;;;5076330;28;20088;-79
2022/07/13 02:41:29;;;;;;;11.27;6.22;;;20.50;99.90;;;;;;5059197;28;20020;-78
2022/07/13 02:43:54;;;;;;;11.35;7.28;;;20.50;99.90;;;;;;5057875;28;20035;-78
2022/07/13 02:46:21;;;;;;;8.70;5.85;;;20.50;99.90;;;;;;5057726;28;20031;-78
2022/07/13 02:48:46;;;;;;;10.43;5.53;;;20.50;99.90;;;;;;5075824;28;20381;-78
2022/07/13 02:51:12;;;;;;;10.20;6.22;;;20.50;99.90;;;;;;5075752;28;20027;-78
2022/07/13 02:53:38;;;;;;;15.73;7.38;;;20.50;99.90;;;;;;5057489;28;20024;-78
2022/07/13 02:56:06;;;;;;;11.35;6.65;;;20.50;99.90;;;;;;5075379;28;20016;-78
2022/07/13 02:58:32;;;;;;;;;;;20.50;99.90;;;;;;5075640;28;20032;-78
2022/07/13 03:00:57;;;;;;;13.40;7.10;;;20.50;99.90;;;;;;5075553;28;20274;-78
2022/07/13 03:03:23;;;;;;;11.15;6.43;;;20.40;99.90;;;;;;5075115;28;20032;-77
2022/07/13 03:05:49;;;;;;;12.48;6.60;;;20.50;99.90;;;;;;5057310;28;20025;-78
2022/07/13 03:08:14;;;;;;;15.98;7.20;;;20.40;99.90;;;;;;5057264;28;20039;-78
2022/07/13 03:10:40;;;;;;;12.13;6.80;;;20.40;99.90;;;;;;5057117;28;20495;-78
2022/07/13 03:13:05;;;;;;;14.80;7.00;;;20.40;99.90;;;;;;5075583;28;20386;-77
2022/07/13 03:15:31;;;;;;;10.88;6.57;;;20.40;99.90;;;;;;5075604;28;20036;-77
2022/07/13 03:17:56;;;;;;;13.88;7.03;;;20.40;99.90;;;;;;5074924;28;20142;-78
2022/07/13 03:20:22;;;;;;;10.68;6.32;;;20.40;99.90;;;;;;5074924;28;20013;-79
2022/07/13 03:22:49;;;;;;;15.25;7.72;;;20.30;99.90;;;;;;5074980;28;20027;-77
2022/07/13 03:25:15;;;;;;;12.30;7.28;;;20.40;99.90;;;;;;5056891;28;20086;-77
2022/07/13 03:27:41;;;;;;;16.17;7.30;;;20.40;99.90;;;;;;5056984;28;20039;-77
2022/07/13 03:30:07;;;;;;;10.73;6.70;;;20.40;99.90;;;;;;5074897;28;20058;-78
2022/07/13 03:32:33;;;;;;;12.90;6.40;;;20.30;99.90;;;;;;5056854;28;20032;-78
2022/07/13 03:34:59;;;;;;;12.05;7.20;;;20.30;99.90;;;;;;5074660;28;20027;-78
2022/07/13 03:37:25;;;;;;;13.38;6.72;;;20.30;99.90;;;;;;5075477;28;20047;-78
2022/07/13 03:39:50;;;;;;;14.27;7.40;;;20.30;99.90;;;;;;5074503;28;20517;-78
2022/07/13 03:42:16;;;;;;;13.48;7.43;;;20.50;99.90;;;;;;5074373;28;20029;-79
2022/07/13 03:44:41;;;;;;;13.10;7.35;;;20.30;99.90;;;;;;5074515;28;20504;-79
2022/07/13 03:47:07;;;;;;;13.52;6.40;;;20.30;99.90;;;;;;5055875;28;20059;-78
2022/07/13 03:49:32;;;;;;;10.95;7.07;;;20.30;99.90;;;;;;5074279;28;20024;-78
2022/07/13 03:51:58;;;;;;;11.80;7.35;;;20.30;99.90;;;;;;5074117;28;20025;-78
2022/07/13 03:54:23;;;;;;;13.50;7.60;;;20.30;99.90;;;;;;5056461;28;20486;-78
2022/07/13 03:56:49;;;;;;;13.68;8.25;;;20.30;99.90;;;;;;5074793;28;20025;-78
2022/07/13 03:59:15;;;;;;;15.15;7.63;;;20.30;99.90;;;;;;5074431;28;20053;-78
2022/07/13 04:01:40;;;;;;;13.50;7.80;;;20.30;99.90;;;;;;5056033;28;20028;-78
2022/07/13 04:04:06;;;;;;;14.10;7.18;;;20.30;99.90;;;;;;5073529;28;20059;-78
2022/07/13 04:06:32;;;;;;;16.83;7.55;;;20.30;99.90;;;;;;5056232;28;20374;-77
2022/07/13 04:08:58;;;;;;;15.95;7.07;;;20.30;99.90;;;;;;5056050;28;20033;-78
2022/07/13 04:11:25;;;;;;;11.55;7.38;;;20.30;99.90;;;;;;5056057;28;20025;-78
2022/07/13 04:13:51;;;;;;;13.00;7.13;;;20.30;99.90;;;;;;5055551;28;20031;-79
2022/07/13 04:16:17;;;;;;;12.88;7.35;;;20.30;99.90;;;;;;5073749;28;20474;-78
2022/07/13 04:18:42;;;;;;;12.68;7.38;;;20.20;99.90;;;;;;5055852;28;20021;-78
2022/07/13 04:21:08;;;;;;;12.65;6.88;;;20.30;99.90;;;;;;5056164;28;20564;-78
2022/07/13 04:23:33;;;;;;;11.20;6.90;;;20.40;99.90;;;;;;5074460;28;20408;-79
2022/07/13 04:25:59;;;;;;;13.25;7.10;;;20.40;99.90;;;;;;5074168;28;20031;-79
2022/07/13 04:28:25;;;;;;;12.65;5.90;;;20.40;99.90;;;;;;5074280;28;20025;-79
2022/07/13 04:30:51;;;;;;;9.55;5.47;;;20.50;99.90;;;;;;5074759;28;20024;-79
2022/07/13 04:33:16;;;;;;;9.98;5.82;;;20.50;99.90;;;;;;5074478;28;20078;-79
2022/07/13 04:35:42;;;;;;;9.30;5.68;;;20.50;99.90;;;;;;5074640;28;20028;-78
2022/07/13 04:38:08;;;;;;;9.40;4.90;;;20.50;99.90;;;;;;5074453;28;20021;-78
2022/07/13 04:40:33;;;;;;;15.23;4.78;;;20.50;99.90;;;;;;5073656;28;20031;-78
2022/07/13 04:42:59;;;;;;;10.25;5.22;;;20.60;99.90;;;;;;5055569;28;20020;-77
2022/07/13 04:45:24;;;;;;;8.18;4.38;;;20.60;99.90;;;;;;5073630;28;20024;-78
2022/07/13 04:47:50;;;;;;;10.43;4.85;;;20.60;99.90;;;;;;5055616;28;20074;-78
2022/07/13 04:50:16;;;;;;;7.50;4.68;;;20.70;99.90;;;;;;5055668;28;20067;-78
2022/07/13 04:52:42;;;;;;;6.20;4.15;;;20.90;99.90;;;;;;5074185;28;20477;-78
2022/07/13 04:55:09;;;;;;;6.53;3.72;;;20.80;99.90;;;;;;5055515;28;20070;-78
2022/07/13 04:57:35;;;;;;;5.47;3.45;;;20.80;99.90;;;;;;5073357;28;20016;-78
2022/07/13 05:00:01;;;;;;;8.52;3.30;;;20.90;99.90;;;;;;5073471;28;20020;-78
2022/07/13 05:02:26;;;;;;;6.03;3.53;;;21.00;99.90;;;;;;5073810;28;20035;-78
2022/07/13 05:04:52;;;;;;;4.75;2.83;;;21.40;99.90;;;;;;5073233;28;20035;-78
2022/07/13 05:07:18;;;;;;;5.28;2.58;;;21.10;99.90;;;;;;5073841;28;20029;-77
2022/07/13 05:09:45;;;;;;;7.05;2.85;;;21.10;99.90;;;;;;5073472;28;20094;-78
2022/07/13 05:12:11;;;;;;;3.28;1.98;;;21.20;99.90;;;;;;5055397;28;20017;-78
2022/07/13 05:14:36;;;;;;;3.65;1.80;;;21.20;99.90;;;;;;5073442;28;20033;-78
2022/07/13 05:17:03;;;;;;;3.53;2.13;;;21.30;99.90;;;;;;5074120;28;20420;-78
2022/07/13 05:19:28;;;;;;;3.78;2.47;;;21.40;99.90;;;;;;5073773;28;20017;-78
2022/07/13 05:21:54;;;;;;;3.88;0.98;;;21.40;99.90;;;;;;5057501;28;20017;-79
2022/07/13 05:24:19;;;;;;;6.10;2.08;;;21.50;99.90;;;;;;5057670;28;20028;-79
2022/07/13 05:26:45;;;;;;;2.70;1.17;;;21.50;99.90;;;;;;5074572;28;20134;-79
2022/07/13 05:29:11;;;;;;;2.47;1.08;;;21.50;99.90;;;;;;5056389;28;20020;-79
2022/07/13 05:31:36;;;;;;;3.40;1.38;;;21.60;99.90;;;;;;5056393;28;20021;-79
2022/07/13 05:34:02;;;;;;;3.60;1.10;;;21.70;99.90;;;;;;5056417;28;20082;-77
2022/07/13 05:36:27;;;;;;;5.65;1.25;;;21.70;99.90;;;;;;5073090;28;20147;-75
2022/07/13 05:38:53;;;;;;;5.47;1.10;;;21.80;99.90;;;;;;5072985;28;20019;-75
2022/07/13 05:41:18;;;;;;;2.55;1.00;;;21.90;99.90;;;;;;5073212;28;20020;-76
2022/07/13 05:43:44;;;;;;;2.80;1.33;;;21.80;99.90;;;;;;5073084;28;20063;-76
2022/07/13 05:46:10;;;;;;;3.63;1.13;;;21.90;99.90;;;;;;5073013;28;20017;-76
2022/07/13 05:48:36;;;;;;;5.40;1.10;;;22.00;99.90;;;;;;5072695;28;20032;-76
2022/07/13 05:51:01;;;;;;;2.20;1.02;;;22.10;99.90;;;;;;5054891;28;20430;-76
2022/07/13 05:53:27;;;;;;;5.22;1.33;;;22.20;99.90;;;;;;5072729;28;20096;-77
2022/07/13 05:55:52;;;;;;;2.92;1.30;;;22.30;99.90;;;;;;5054754;28;20074;-76
2022/07/13 05:58:18;;;;;;;2.53;1.20;;;22.40;99.90;;;;;;5054646;28;20050;-76
2022/07/13 06:00:44;;;;;;;3.03;0.52;;;22.50;99.90;;;;;;5072672;28;20074;-76
2022/07/13 06:03:09;;;;;;;2.63;1.13;;;22.60;99.90;;;;;;5072812;28;20092;-76
2022/07/13 06:05:35;;;;;;;2.35;0.70;;;22.60;99.90;;;;;;5054930;28;20086;-76
2022/07/13 06:08:01;;;;;;;4.95;1.48;;;22.70;99.90;;;;;;5072601;28;20024;-76
2022/07/13 06:10:27;;;;;;;2.38;1.30;;;22.60;99.90;;;;;;5073589;28;20082;-76
2022/07/13 06:12:53;;;;;;;2.20;1.42;;;22.60;99.90;;;;;;5076129;28;20482;-76
2022/07/13 06:15:18;;;;;;;2.38;1.35;;;22.60;99.90;;;;;;5058482;28;20028;-75
2022/07/13 06:17:44;;;;;;;4.70;1.85;;;22.60;99.90;;;;;;5076494;28;20075;-76
2022/07/13 06:20:10;;;;;;;3.92;1.88;;;22.60;99.90;;;;;;5058139;28;20478;-76
2022/07/13 06:22:39;;;;;;;3.53;1.50;;;22.50;99.90;;;;;;5058146;28;20385;-77
2022/07/13 06:25:05;;;;;;;5.43;1.73;;;22.80;99.90;;;;;;5076039;28;20024;-76
2022/07/13 06:27:30;;;;;;;5.63;1.58;;;22.60;99.90;;;;;;5057956;28;20089;-76
2022/07/13 06:29:56;;;;;;;2.67;1.48;;;22.60;99.90;;;;;;5075948;28;20054;-77
2022/07/13 06:32:22;;;;;;;6.90;1.58;;;22.70;99.90;;;;;;5075726;28;20078;-77
2022/07/13 06:34:47;;;;;;;6.15;1.75;;;23.00;99.90;;;;;;5057956;28;20042;-77
2022/07/13 06:37:13;;;;;;;6.93;2.13;;;22.90;99.90;;;;;;5076131;28;20032;-77
2022/07/13 06:39:39;;;;;;;4.88;1.67;;;22.90;99.90;;;;;;5057731;28;20021;-76
2022/07/13 06:42:04;;;;;;;3.08;1.50;;;23.00;99.90;;;;;;5075697;28;20017;-76
2022/07/13 06:44:30;;;;;;;3.88;1.23;;;23.10;99.90;;;;;;5075748;28;20025;-76
2022/07/13 06:46:59;;;;;;;2.42;1.42;;;23.10;99.90;;;;;;5057749;28;20036;-77
2022/07/13 06:49:26;;;;;;;5.13;1.63;;;23.20;99.90;;;;;;5076378;28;20024;-76
2022/07/13 06:51:56;;;;;;;3.92;2.03;;;23.20;99.90;;;;;;5058107;28;20074;-76
2022/07/13 06:54:21;;;;;;;5.05;1.55;;;23.30;99.90;;;;;;5079556;28;20052;-76
2022/07/13 06:56:47;;;;;;;2.72;1.33;;;23.30;99.90;;;;;;5075608;28;20055;-76
2022/07/13 06:59:13;;;;;;;4.25;1.70;;;23.40;99.90;;;;;;5075582;28;20021;-76
2022/07/13 07:01:39;;;;;;;2.75;1.50;;;23.30;99.90;;;;;;5057431;28;20075;-76
2022/07/13 07:04:04;;;;;;;3.58;1.02;;;23.30;99.90;;;;;;5080723;23;20466;-76
2022/07/13 07:06:30;;;;;;;3.20;0.88;;;23.40;99.90;;;;;;5096571;28;20028;-77
2022/07/13 07:08:58;;;;;;;5.22;0.90;;;23.50;99.90;;;;;;5094149;28;20020;-77
2022/07/13 07:11:24;;;;;;;2.50;0.98;;;23.70;99.90;;;;;;5095151;28;20013;-75
2022/07/13 07:13:50;;;;;;;6.63;1.58;;;23.80;99.90;;;;;;5095416;28;20036;-75
2022/07/13 07:16:15;;;;;;;3.30;1.05;;;23.90;99.90;;;;;;5094095;28;20019;-76
2022/07/13 07:18:41;;;;;;;2.28;1.05;;;24.10;99.90;;;;;;5094885;28;20028;-75
2022/07/13 07:21:07;;;;;;;2.45;1.30;;;24.30;99.90;;;;;;5095148;28;20016;-75
2022/07/13 07:23:32;;;;;;;2.33;1.00;;;24.40;99.90;;;;;;5076086;28;20417;-75
2022/07/13 07:25:58;;;;;;;3.53;1.33;;;24.50;99.90;;;;;;5074154;28;20086;-75
2022/07/13 07:28:24;;;;;;;5.38;1.30;;;24.50;99.90;;;;;;5074789;28;20024;-76
2022/07/13 07:30:51;;;;;;;3.33;0.85;;;24.60;99.90;;;;;;5073347;28;20067;-77
2022/07/13 07:33:17;;;;;;;5.57;1.58;;;24.60;99.90;;;;;;5073275;28;20016;-77
2022/07/13 07:35:42;;;;;;;3.42;0.98;;;24.60;99.90;;;;;;5074616;28;20505;-76
2022/07/13 07:38:08;;;;;;;3.92;1.30;;;24.70;99.90;;;;;;5075391;28;20531;-76
2022/07/13 07:40:34;;;;;;;2.78;0.45;;;24.70;99.90;;;;;;5089168;28;20021;-78
2022/07/13 07:42:59;;;;;;;4.25;1.08;;;24.80;99.90;;;;;;5094511;28;20036;-76
2022/07/13 07:45:25;;;;;;;3.00;1.08;;;24.90;99.90;;;;;;5095041;28;20099;-76
2022/07/13 07:47:51;;;;;;;5.28;0.73;;;25.00;99.90;;;;;;5094633;28;20036;-76
2022/07/13 07:50:16;;;;;;;4.10;1.15;;;25.20;99.90;;;;;;5088914;28;20043;-76
2022/07/13 07:52:42;;;;;;;5.68;0.57;;;25.40;99.90;;;;;;5094403;28;20472;-76
2022/07/13 07:55:07;;;;;;;1.63;1.00;;;25.60;99.90;;;;;;5077636;28;20043;-76
2022/07/13 07:57:46;;;;;;;1.48;0.60;;;25.70;99.90;;;;;;5074384;28;20036;-76
2022/07/13 08:00:13;;;;;;;4.03;0.98;;;25.60;99.90;;;;;;5072869;28;20020;-76
2022/07/13 08:02:39;;;;;;;2.40;0.80;;;25.60;99.90;;;;;;5072853;28;20055;-76
2022/07/13 08:05:05;;;;;;;4.30;0.90;;;25.80;99.90;;;;;;5091729;28;20036;-76
2022/07/13 08:07:31;;;;;;;4.10;0.73;;;25.90;99.90;;;;;;5094223;28;20032;-76
2022/07/13 08:09:56;;;;;;;2.00;0.90;;;26.20;99.90;;;;;;5094256;28;20035;-76
2022/07/13 08:12:22;;;;;;;1.63;0.50;;;26.30;99.90;;;;;;5093822;28;20024;-76
2022/07/13 08:14:47;;;;;;;6.32;0.82;;;26.60;99.90;;;;;;5094080;28;20016;-76
2022/07/13 08:17:13;;;;;;;1.90;0.50;;;26.70;99.90;;;;;;5094354;28;20024;-76
2022/07/13 08:19:38;;;;;;;1.77;0.70;;;26.90;99.90;;;;;;5093417;28;20016;-76
2022/07/13 08:22:04;;;;;;;2.50;0.57;;;27.10;99.90;;;;;;5094120;28;20410;-76
2022/07/13 08:24:29;;;;;;;3.70;0.98;;;27.10;99.90;;;;;;5092771;28;20020;-76
2022/07/13 08:26:55;;;;;;;1.48;0.20;;;27.20;99.90;;;;;;5092630;28;20030;-76
2022/07/13 08:29:21;;;;;;;3.35;0.82;;;27.20;99.90;;;;;;5093876;28;20048;-76
2022/07/13 08:31:46;;;;;;;1.15;0.38;;;27.20;99.90;;;;;;5094103;28;20511;-76
2022/07/13 08:39:40;;;;;;;1.50;0.30;;;27.30;99.90;;;;;;5094555;28;20035;-75
2022/07/13 08:42:07;;;;;;;1.10;0.28;;;27.30;99.90;;;;;;5093952;28;20024;-75
2022/07/13 08:44:32;;;;;;;0.68;0.22;;;27.50;99.90;;;;;;5092359;28;20020;-75
2022/07/13 08:47:00;;;;;;;1.45;0.45;;;27.60;99.90;;;;;;5093612;28;20081;-75
2022/07/13 08:49:27;;;;;;;0.55;0.00;;;27.50;99.90;;;;;;5093541;28;20016;-75
2022/07/13 08:51:53;;;;;;;3.00;0.08;;;27.50;99.90;;;;;;5088873;28;20484;-75
2022/07/13 08:54:19;;;;;;;1.40;0.17;;;27.60;99.90;;;;;;5093153;28;20020;-75
2022/07/13 08:56:45;;;;;;;1.00;0.00;;;27.60;99.90;;;;;;5074633;28;20025;-75
2022/07/13 08:59:11;;;;;;;4.07;0.52;;;27.80;99.90;;;;;;5072969;28;20107;-76
2022/07/13 09:01:37;;;;;;;0.38;0.00;;;27.80;98.90;;;;;;5072195;28;20104;-74
2022/07/13 09:04:07;;;;;;;0.65;0.20;;;27.80;98.30;;;;;;5086757;28;20054;-75
2022/07/13 09:06:39;;;;;;;3.10;0.10;;;27.80;97.70;;;;;;5082444;28;20065;-75
2022/07/13 09:09:22;;;;;;;0.73;0.00;;;27.80;97.00;;;;;;5074391;28;20366;-75
2022/07/13 09:11:48;;;;;;;2.10;0.10;;;27.90;97.20;;;;;;5093128;28;20082;-75
2022/07/13 09:14:24;;;;;;;2.55;0.00;;;27.90;93.80;;;;;;5093420;28;20032;-75
2022/07/13 09:16:51;;;;;;;0.90;0.00;;;27.80;96.60;;;;;;5093573;28;20099;-75
2022/07/13 09:19:17;;;;;;;1.17;0.00;;;27.90;93.70;;;;;;5084691;28;20358;-75
2022/07/13 09:21:43;;;;;;;0.95;0.08;;;27.90;94.40;;;;;;5072997;28;20028;-75
2022/07/13 09:24:08;;;;;;;1.88;0.00;;;27.90;92.60;;;;;;5072970;28;20047;-75
2022/07/13 09:26:47;;;;;;;1.33;0.03;;;28.00;91.80;;;;;;5072553;28;20103;-75
2022/07/13 09:29:13;;;;;;;3.40;0.13;;;28.00;91.80;;;;;;5072911;28;20028;-75
2022/07/13 09:31:53;;;;;;;0.40;0.10;;;28.00;91.60;;;;;;5071737;28;20025;-75
2022/07/13 09:34:20;;;;;;;3.38;0.00;;;28.00;91.70;;;;;;5071626;28;20020;-75
2022/07/13 09:37:06;;;;;;;1.45;0.25;;;28.10;91.70;;;;;;5071474;28;20517;-75
2022/07/13 09:39:31;;;;;;;0.65;0.03;;;28.00;91.50;;;;;;5089029;28;20488;-75
2022/07/13 09:41:57;;;;;;;1.85;0.00;;;28.20;90.30;;;;;;5093175;28;20017;-75
2022/07/13 09:47:08;;;;;;;0.20;0.00;;;28.30;85.00;;;;;;5076392;28;20032;-75
2022/07/13 09:49:41;;;;;;;0.33;0.00;;;28.40;90.10;;;;;;5075332;28;20021;-75
2022/07/13 09:52:11;;;;;;;1.02;0.10;;;28.40;84.50;;;;;;5077099;28;20032;-75
2022/07/13 09:54:39;;;;;;;0.75;0.00;;;28.40;89.10;;;;;;5077115;28;20114;-75
2022/07/13 09:57:10;;;;;;;0.68;0.20;;;28.60;89.30;;;;;;5076560;28;20023;-75
2022/07/13 09:59:41;;;;;;;0.40;0.00;;;28.80;89.00;;;;;;5076676;28;20025;-75
2022/07/13 10:02:07;;;;;;;3.97;0.47;;;29.00;85.20;;;;;;5076427;28;20044;-75
2022/07/13 10:04:36;;;;;;;0.75;0.00;;;29.10;85.00;;;;;;5076373;28;20067;-75
2022/07/13 10:07:05;;;;;;;0.57;0.00;;;29.10;80.70;;;;;;5075024;28;20432;-75
2022/07/13 10:09:32;;;;;;;2.08;0.05;;;29.10;81.60;;;;;;5076218;28;20021;-75
2022/07/13 10:11:59;;;;;;;1.27;0.00;;;29.20;80.40;;;;;;5076260;28;20393;-75
2022/07/13 10:14:28;;;;;;;1.83;0.00;;;29.40;78.40;;;;;;5076092;28;20028;-75
2022/07/13 10:17:04;;;;;;;0.20;0.00;;;29.80;79.90;;;;;;5076149;28;20477;-75
2022/07/13 10:19:31;;;;;;;1.08;0.00;;;30.10;73.90;;;;;;5076373;28;20458;-75
2022/07/13 10:22:14;;;;;;;1.48;0.00;;;30.20;74.20;;;;;;5074962;28;20017;-75
2022/07/13 10:24:52;;;;;;;0.57;0.00;;;30.30;74.70;;;;;;5076106;28;20551;-75
2022/07/13 10:27:19;;;;;;;;;;;30.40;70.70;;;;;;5076519;28;20020;-75
2022/07/13 10:29:49;;;;;;;0.50;0.05;;;30.30;73.30;;;;;;5075776;28;19908;-75
2022/07/13 10:32:26;;;;;;;0.82;0.00;;;30.20;71.80;;;;;;5075744;28;20504;-75
2022/07/13 10:34:53;;;;;;;1.27;0.22;;;30.20;71.80;;;;;;5076479;28;20025;-75
2022/07/13 10:37:19;;;;;;;0.82;0.00;;;30.10;71.30;;;;;;5074578;28;20024;-75
2022/07/13 10:40:11;;;;;;;3.17;0.10;;;30.00;72.30;;;;;;5075713;28;20095;-75
2022/07/13 10:42:57;;;;;;;3.78;0.15;;;30.10;71.70;;;;;;5075754;28;20017;-75
2022/07/13 10:45:32;;;;;;;0.47;0.10;;;30.40;75.30;;;;;;5076211;28;20398;-75
2022/07/13 10:47:58;;;;;;;3.40;0.10;;;30.60;74.50;;;;;;5075636;28;20082;-75
2022/07/13 10:50:26;;;;;;;3.00;0.20;;;30.80;70.70;;;;;;5074206;28;20043;-75
2022/07/13 10:52:52;;;;;;;2.60;0.10;;;30.90;75.40;;;;;;5075490;28;20035;-75
2022/07/13 10:55:27;;;;;;;0.75;0.00;;;31.00;72.60;;;;;;5075867;28;20017;-75
2022/07/13 10:57:53;;;;;;;2.13;0.03;;;30.90;71.70;;;;;;5073964;28;20504;-75
2022/07/13 11:00:35;;;;;;;1.45;0.00;;;30.90;68.80;;;;;;5074032;28;20016;-75
2022/07/13 11:03:07;;;;;;;0.85;0.00;;;30.80;69.90;;;;;;5075194;28;20031;-75
2022/07/13 11:05:36;;;;;;;0.08;0.00;;;30.80;68.80;;;;;;5075692;28;20486;-75
2022/07/13 11:08:13;;;;;;;0.35;0.00;;;30.80;69.50;;;;;;5075300;28;20504;-75
2022/07/13 11:10:41;;;;;;;0.57;0.00;;;31.10;69.30;;;;;;5073885;28;20028;-75
2022/07/13 11:13:14;;;;;;;0.50;0.00;;;31.10;68.40;;;;;;5075545;28;20021;-75
2022/07/13 11:15:44;;;;;;;0.47;0.17;;;30.80;66.60;;;;;;5075740;28;20028;-75
2022/07/13 11:18:22;;;;;;;0.10;0.00;;;31.00;69.70;;;;;;5075056;28;20028;-75
2022/07/13 11:21:09;;;;;;;1.08;0.00;;;31.00;65.80;;;;;;5074869;28;20032;-75
2022/07/13 11:26:46;;;;;;;0.85;0.10;;;31.00;66.00;;;;;;5075451;28;20102;-75
2022/07/13 11:29:42;;;;;;;1.40;0.10;;;31.30;68.90;;;;;;5074809;28;20028;-75
2022/07/13 11:32:08;;;;;;;1.40;0.10;;;31.80;68.30;;;;;;5074734;28;20032;-76
2022/07/13 11:34:35;;;;;;;0.25;0.15;;;32.00;61.90;;;;;;5074489;28;20481;-76
2022/07/13 11:37:01;;;;;;;2.08;0.15;;;31.90;63.00;;;;;;5074657;28;20025;-76
2022/07/13 11:39:28;;;;;;;0.90;0.10;;;31.80;63.40;;;;;;5074334;28;20566;-76
2022/07/13 11:41:54;;;;;;;2.08;0.00;;;31.80;63.50;;;;;;5073177;28;20032;-76
2022/07/13 11:44:29;;;;;;;4.75;0.00;;;32.00;65.50;;;;;;5073245;28;20542;-78
2022/07/13 11:46:56;;;;;;;2.08;0.43;;;32.30;66.60;;;;;;5074403;28;20074;-77
2022/07/13 11:49:23;;;;;;;1.13;0.10;;;32.40;63.00;;;;;;5074515;28;20029;-78
2022/07/13 11:51:49;;;;;;;0.10;0.00;;;32.20;63.60;;;;;;5073079;28;20486;-77
2022/07/13 11:54:17;;;;;;;1.42;0.38;;;32.00;64.20;;;;;;5072936;28;20071;-76
2022/07/13 11:56:51;;;;;;;0.73;0.30;;;31.70;65.90;;;;;;5074661;28;20031;-76
2022/07/13 11:59:39;;;;;;;0.65;0.10;;;31.30;65.50;;;;;;5074269;28;20481;-76
2022/07/13 12:02:08;;;;;;;2.35;0.15;;;30.80;65.50;;;;;;5074668;28;20450;-76
2022/07/13 12:04:41;;;;;;;1.85;0.10;;;30.60;66.10;;;;;;5073897;28;20040;-76
2022/07/13 12:07:21;;;;;;;0.70;0.10;;;30.40;67.60;;;;;;5074337;28;20040;-77
2022/07/13 12:09:49;;;;;;;0.50;0.20;;;30.70;71.10;;;;;;5073437;28;20031;-77
2022/07/13 12:12:16;;;;;;;0.70;0.05;;;31.10;70.20;;;;;;5073900;28;20025;-77
2022/07/13 12:14:43;;;;;;;3.35;0.30;;;31.40;69.40;;;;;;5073837;28;20054;-77
2022/07/13 12:17:09;;;;;;;4.07;0.57;;;31.60;68.50;;;;;;5073993;28;20029;-77
2022/07/13 12:19:34;;;;;;;2.78;0.00;;;31.60;66.80;;;;;;5073774;28;20031;-77
2022/07/13 12:22:00;;;;;;;2.92;0.22;;;31.60;66.00;;;;;;5073803;28;20032;-77
2022/07/13 12:24:29;;;;;;;2.38;0.15;;;31.60;67.30;;;;;;5073699;28;20385;-76
2022/07/13 12:26:55;;;;;;;1.67;0.10;;;31.80;67.50;;;;;;5072376;28;20021;-76
2022/07/13 12:29:31;;;;;;;2.15;0.50;;;31.90;64.20;;;;;;5073823;28;20070;-76
2022/07/13 12:31:57;;;;;;;2.35;0.00;;;32.10;66.80;;;;;;5073871;28;20033;-77
2022/07/13 12:34:23;;;;;;;1.73;0.50;;;32.30;65.80;;;;;;5072255;28;20494;-77
2022/07/13 12:36:49;;;;;;;1.45;0.00;;;32.40;65.00;;;;;;5073629;28;20024;-77
2022/07/13 12:39:18;;;;;;;1.60;0.10;;;32.60;66.20;;;;;;5072685;28;20088;-78
2022/07/13 12:41:53;;;;;;;1.00;0.20;;;32.60;63.20;;;;;;5075528;28;20013;-78
2022/07/13 12:44:26;;;;;;;0.60;0.00;;;32.60;63.40;;;;;;5075055;28;20078;-78
2022/07/13 12:46:56;;;;;;;3.58;0.00;;;32.70;61.50;;;;;;5074915;28;20032;-78
2022/07/13 12:49:38;;;;;;;1.13;0.00;;;32.60;63.80;;;;;;5073468;28;20104;-78
2022/07/13 12:52:14;;;;;;;0.52;0.10;;;32.70;63.70;;;;;;5073670;28;20024;-79
2022/07/13 12:54:46;;;;;;;0.35;0.10;;;32.20;61.90;;;;;;5074003;28;20481;-77
2022/07/13 12:57:15;;;;;;;2.90;0.08;;;32.30;59.70;;;;;;5073408;28;20496;-77
2022/07/13 12:59:55;;;;;;;1.85;0.13;;;32.60;62.60;;;;;;5073308;28;20093;-77